sensor_id;sensor_type;location;lat;lon;timestamp;pressure;altitude;pressure_sealevel;temperature;humidity
75886;BME280;64561;44.018;10.144;2024-02-15T00:00:03;102486.44;;;6.80;100.00
75886;BME280;64561;44.018;10.144;2024-02-15T00:02:31;102480.44;;;6.80;100.00
75886;BME280;64561;44.018;10.144;2024-02-15T00:04:58;102482.50;;;6.85;100.00
75886;BME280;64561;44.018;10.144;2024-02-15T00:07:26;102458.53;;;6.82;100.00
75886;BME280;64561;44.018;10.144;2024-02-15T00:09:54;102473.34;;;7.01;100.00
75886;BME280;64561;44.018;10.144;2024-02-15T00:12:21;102466.59;;;7.01;100.00
75886;BME280;64561;44.018;10.144;2024-02-15T00:14:48;102467.56;;;7.03;100.00
75886;BME280;64561;44.018;10.144;2024-02-15T00:17:16;102477.88;;;7.05;100.00
75886;BME280;64561;44.018;10.144;2024-02-15T00:19:43;102468.25;;;7.01;100.00
75886;BME280;64561;44.018;10.144;2024-02-15T00:22:12;102469.72;;;6.97;100.00
75886;BME280;64561;44.018;10.144;2024-02-15T00:24:40;102475.00;;;7.00;100.00
75886;BME280;64561;44.018;10.144;2024-02-15T00:27:09;102456.72;;;6.93;100.00
75886;BME280;64561;44.018;10.144;2024-02-15T00:29:38;102480.97;;;7.01;100.00
75886;BME280;64561;44.018;10.144;2024-02-15T00:32:07;102483.31;;;6.98;100.00
75886;BME280;64561;44.018;10.144;2024-02-15T00:34:36;102483.50;;;7.01;100.00
75886;BME280;64561;44.018;10.144;2024-02-15T00:37:06;102472.06;;;6.94;100.00
75886;BME280;64561;44.018;10.144;2024-02-15T00:39:33;102484.09;;;6.97;100.00
75886;BME280;64561;44.018;10.144;2024-02-15T00:42:01;102481.97;;;6.90;100.00
75886;BME280;64561;44.018;10.144;2024-02-15T00:44:28;102479.22;;;6.86;100.00
75886;BME280;64561;44.018;10.144;2024-02-15T00:46:56;102481.84;;;6.88;100.00
75886;BME280;64561;44.018;10.144;2024-02-15T00:49:23;102483.31;;;6.84;100.00
75886;BME280;64561;44.018;10.144;2024-02-15T00:51:54;102482.84;;;6.90;100.00
75886;BME280;64561;44.018;10.144;2024-02-15T00:54:21;102489.59;;;6.90;100.00
75886;BME280;64561;44.018;10.144;2024-02-15T00:56:50;102484.84;;;6.82;100.00
75886;BME280;64561;44.018;10.144;2024-02-15T00:59:18;102490.84;;;6.83;100.00
75886;BME280;64561;44.018;10.144;2024-02-15T01:01:46;102481.34;;;6.80;100.00
75886;BME280;64561;44.018;10.144;2024-02-15T01:04:15;102478.69;;;6.79;100.00
75886;BME280;64561;44.018;10.144;2024-02-15T01:06:42;102479.38;;;6.76;100.00
75886;BME280;64561;44.018;10.144;2024-02-15T01:09:10;102480.16;;;6.75;100.00
75886;BME280;64561;44.018;10.144;2024-02-15T01:11:38;102475.47;;;6.68;100.00
75886;BME280;64561;44.018;10.144;2024-02-15T01:14:05;102467.47;;;6.50;100.00
75886;BME280;64561;44.018;10.144;2024-02-15T01:16:33;102479.28;;;6.50;100.00
75886;BME280;64561;44.018;10.144;2024-02-15T01:19:02;102477.25;;;6.44;100.00
75886;BME280;64561;44.018;10.144;2024-02-15T01:21:30;102478.59;;;6.39;100.00
75886;BME280;64561;44.018;10.144;2024-02-15T01:24:00;102480.50;;;6.30;100.00
75886;BME280;64561;44.018;10.144;2024-02-15T01:26:29;102477.63;;;6.25;100.00
75886;BME280;64561;44.018;10.144;2024-02-15T01:28:56;102490.91;;;6.21;100.00
75886;BME280;64561;44.018;10.144;2024-02-15T01:31:24;102484.97;;;6.21;100.00
75886;BME280;64561;44.018;10.144;2024-02-15T01:33:51;102478.31;;;6.23;100.00
75886;BME280;64561;44.018;10.144;2024-02-15T01:36:19;102478.50;;;6.26;100.00
75886;BME280;64561;44.018;10.144;2024-02-15T01:38:46;102477.84;;;6.28;100.00
75886;BME280;64561;44.018;10.144;2024-02-15T01:41:13;102483.59;;;6.26;100.00
75886;BME280;64561;44.018;10.144;2024-02-15T01:43:44;102477.88;;;6.16;100.00
75886;BME280;64561;44.018;10.144;2024-02-15T01:46:15;102476.38;;;6.07;100.00
75886;BME280;64561;44.018;10.144;2024-02-15T01:48:43;102484.13;;;6.08;100.00
75886;BME280;64561;44.018;10.144;2024-02-15T01:51:12;102479.91;;;6.09;100.00
75886;BME280;64561;44.018;10.144;2024-02-15T01:53:42;102477.69;;;6.13;100.00
75886;BME280;64561;44.018;10.144;2024-02-15T01:56:11;102469.38;;;6.16;100.00
75886;BME280;64561;44.018;10.144;2024-02-15T01:58:42;102461.69;;;6.14;100.00
75886;BME280;64561;44.018;10.144;2024-02-15T02:01:11;102454.56;;;6.22;100.00
75886;BME280;64561;44.018;10.144;2024-02-15T02:03:39;102453.00;;;6.24;100.00
75886;BME280;64561;44.018;10.144;2024-02-15T02:06:07;102457.22;;;6.24;100.00
75886;BME280;64561;44.018;10.144;2024-02-15T02:08:34;102446.94;;;6.22;100.00
75886;BME280;64561;44.018;10.144;2024-02-15T02:11:02;102455.22;;;6.19;100.00
75886;BME280;64561;44.018;10.144;2024-02-15T02:13:30;102456.34;;;6.23;100.00
75886;BME280;64561;44.018;10.144;2024-02-15T02:15:58;102457.88;;;6.21;100.00
75886;BME280;64561;44.018;10.144;2024-02-15T02:18:27;102454.47;;;6.21;100.00
75886;BME280;64561;44.018;10.144;2024-02-15T02:20:54;102457.09;;;6.22;100.00
75886;BME280;64561;44.018;10.144;2024-02-15T02:23:26;102451.59;;;6.16;100.00
75886;BME280;64561;44.018;10.144;2024-02-15T02:25:55;102466.19;;;6.18;100.00
75886;BME280;64561;44.018;10.144;2024-02-15T02:28:22;102461.09;;;6.18;100.00
75886;BME280;64561;44.018;10.144;2024-02-15T02:30:50;102474.00;;;6.22;100.00
75886;BME280;64561;44.018;10.144;2024-02-15T02:33:17;102475.84;;;6.11;100.00
75886;BME280;64561;44.018;10.144;2024-02-15T02:35:50;102483.25;;;6.08;100.00
75886;BME280;64561;44.018;10.144;2024-02-15T02:38:18;102472.38;;;6.10;100.00
75886;BME280;64561;44.018;10.144;2024-02-15T02:40:46;102480.00;;;6.10;100.00
75886;BME280;64561;44.018;10.144;2024-02-15T02:43:13;102482.75;;;6.13;100.00
75886;BME280;64561;44.018;10.144;2024-02-15T02:45:40;102480.78;;;6.09;100.00
75886;BME280;64561;44.018;10.144;2024-02-15T02:48:08;102478.91;;;6.07;100.00
75886;BME280;64561;44.018;10.144;2024-02-15T02:50:36;102472.97;;;6.06;100.00
75886;BME280;64561;44.018;10.144;2024-02-15T02:53:03;102468.66;;;6.05;100.00
75886;BME280;64561;44.018;10.144;2024-02-15T02:55:30;102471.22;;;6.05;100.00
75886;BME280;64561;44.018;10.144;2024-02-15T02:57:58;102459.16;;;6.03;100.00
75886;BME280;64561;44.018;10.144;2024-02-15T03:00:25;102462.72;;;6.05;100.00
75886;BME280;64561;44.018;10.144;2024-02-15T03:02:55;102453.22;;;6.02;100.00
75886;BME280;64561;44.018;10.144;2024-02-15T03:05:24;102442.13;;;6.02;100.00
75886;BME280;64561;44.018;10.144;2024-02-15T03:07:51;102446.69;;;6.06;100.00
75886;BME280;64561;44.018;10.144;2024-02-15T03:10:19;102439.84;;;6.05;100.00
75886;BME280;64561;44.018;10.144;2024-02-15T03:12:46;102445.13;;;6.08;100.00
75886;BME280;64561;44.018;10.144;2024-02-15T03:15:16;102446.09;;;6.10;100.00
75886;BME280;64561;44.018;10.144;2024-02-15T03:17:46;102453.25;;;6.15;100.00
75886;BME280;64561;44.018;10.144;2024-02-15T03:20:15;102449.38;;;6.21;100.00
75886;BME280;64561;44.018;10.144;2024-02-15T03:25:19;102452.81;;;6.21;100.00
75886;BME280;64561;44.018;10.144;2024-02-15T03:27:46;102452.38;;;6.15;100.00
75886;BME280;64561;44.018;10.144;2024-02-15T03:30:13;102454.72;;;6.12;100.00
75886;BME280;64561;44.018;10.144;2024-02-15T03:32:41;102459.13;;;6.14;100.00
75886;BME280;64561;44.018;10.144;2024-02-15T03:35:08;102448.31;;;6.17;100.00
75886;BME280;64561;44.018;10.144;2024-02-15T03:37:36;102449.06;;;6.16;100.00
75886;BME280;64561;44.018;10.144;2024-02-15T03:40:05;102440.69;;;6.17;100.00
75886;BME280;64561;44.018;10.144;2024-02-15T03:42:33;102440.88;;;6.20;100.00
75886;BME280;64561;44.018;10.144;2024-02-15T03:45:00;102440.69;;;6.17;100.00
75886;BME280;64561;44.018;10.144;2024-02-15T03:47:30;102433.50;;;6.11;100.00
75886;BME280;64561;44.018;10.144;2024-02-15T03:49:59;102438.06;;;6.04;100.00
75886;BME280;64561;44.018;10.144;2024-02-15T03:52:27;102435.72;;;6.07;100.00
75886;BME280;64561;44.018;10.144;2024-02-15T03:54:54;102435.44;;;6.02;100.00
75886;BME280;64561;44.018;10.144;2024-02-15T03:57:21;102443.94;;;6.03;100.00
75886;BME280;64561;44.018;10.144;2024-02-15T03:59:49;102437.31;;;6.05;100.00
75886;BME280;64561;44.018;10.144;2024-02-15T04:02:20;102432.53;;;6.09;100.00
75886;BME280;64561;44.018;10.144;2024-02-15T04:04:47;102439.56;;;6.13;100.00
75886;BME280;64561;44.018;10.144;2024-02-15T04:07:14;102435.59;;;6.17;100.00
75886;BME280;64561;44.018;10.144;2024-02-15T04:09:43;102441.44;;;6.16;100.00
75886;BME280;64561;44.018;10.144;2024-02-15T04:12:11;102437.34;;;6.18;100.00
75886;BME280;64561;44.018;10.144;2024-02-15T04:14:38;102437.94;;;6.14;100.00
75886;BME280;64561;44.018;10.144;2024-02-15T04:17:06;102435.38;;;6.14;100.00
75886;BME280;64561;44.018;10.144;2024-02-15T04:19:33;102424.44;;;6.15;100.00
75886;BME280;64561;44.018;10.144;2024-02-15T04:22:01;102429.97;;;6.09;100.00
75886;BME280;64561;44.018;10.144;2024-02-15T04:24:31;102436.81;;;6.10;100.00
75886;BME280;64561;44.018;10.144;2024-02-15T04:26:58;102438.84;;;6.03;100.00
75886;BME280;64561;44.018;10.144;2024-02-15T04:29:26;102443.16;;;5.80;100.00
75886;BME280;64561;44.018;10.144;2024-02-15T04:31:53;102437.38;;;5.69;100.00
75886;BME280;64561;44.018;10.144;2024-02-15T04:34:21;102447.94;;;5.76;100.00
75886;BME280;64561;44.018;10.144;2024-02-15T04:36:49;102453.28;;;5.67;100.00
75886;BME280;64561;44.018;10.144;2024-02-15T04:39:17;102454.81;;;5.53;100.00
75886;BME280;64561;44.018;10.144;2024-02-15T04:41:51;102456.47;;;5.53;100.00
75886;BME280;64561;44.018;10.144;2024-02-15T04:44:19;102449.75;;;5.53;100.00
75886;BME280;64561;44.018;10.144;2024-02-15T04:46:54;102456.03;;;5.58;100.00
75886;BME280;64561;44.018;10.144;2024-02-15T04:49:21;102453.63;;;5.60;100.00
75886;BME280;64561;44.018;10.144;2024-02-15T04:51:49;102450.50;;;5.64;100.00
75886;BME280;64561;44.018;10.144;2024-02-15T04:54:16;102447.97;;;5.64;100.00
75886;BME280;64561;44.018;10.144;2024-02-15T04:56:45;102458.34;;;5.67;100.00
75886;BME280;64561;44.018;10.144;2024-02-15T04:59:13;102439.34;;;5.62;100.00
75886;BME280;64561;44.018;10.144;2024-02-15T05:01:44;102444.34;;;5.60;100.00
75886;BME280;64561;44.018;10.144;2024-02-15T05:04:12;102443.34;;;5.58;100.00
75886;BME280;64561;44.018;10.144;2024-02-15T05:06:40;102452.84;;;5.61;100.00
75886;BME280;64561;44.018;10.144;2024-02-15T05:09:07;102444.88;;;5.56;100.00
75886;BME280;64561;44.018;10.144;2024-02-15T05:11:38;102454.81;;;5.65;100.00
75886;BME280;64561;44.018;10.144;2024-02-15T05:14:08;102457.69;;;5.58;100.00
75886;BME280;64561;44.018;10.144;2024-02-15T05:16:38;102470.28;;;5.56;100.00
75886;BME280;64561;44.018;10.144;2024-02-15T05:19:09;102473.59;;;5.55;100.00
75886;BME280;64561;44.018;10.144;2024-02-15T05:21:39;102468.88;;;5.48;100.00
75886;BME280;64561;44.018;10.144;2024-02-15T05:24:07;102470.28;;;5.44;100.00
75886;BME280;64561;44.018;10.144;2024-02-15T05:26:34;102473.50;;;5.42;100.00
75886;BME280;64561;44.018;10.144;2024-02-15T05:29:02;102475.13;;;5.41;100.00
75886;BME280;64561;44.018;10.144;2024-02-15T05:31:31;102476.94;;;5.42;100.00
75886;BME280;64561;44.018;10.144;2024-02-15T05:33:59;102479.69;;;5.45;100.00
75886;BME280;64561;44.018;10.144;2024-02-15T05:36:26;102479.03;;;5.48;100.00
75886;BME280;64561;44.018;10.144;2024-02-15T05:38:54;102466.88;;;5.44;100.00
75886;BME280;64561;44.018;10.144;2024-02-15T05:41:22;102482.22;;;5.57;100.00
75886;BME280;64561;44.018;10.144;2024-02-15T05:43:49;102478.00;;;5.58;100.00
75886;BME280;64561;44.018;10.144;2024-02-15T05:46:16;102476.13;;;5.55;100.00
75886;BME280;64561;44.018;10.144;2024-02-15T05:48:43;102478.47;;;5.52;100.00
75886;BME280;64561;44.018;10.144;2024-02-15T05:51:11;102492.38;;;5.57;100.00
75886;BME280;64561;44.018;10.144;2024-02-15T05:53:38;102488.03;;;5.56;100.00
75886;BME280;64561;44.018;10.144;2024-02-15T05:56:06;102486.84;;;5.51;100.00
75886;BME280;64561;44.018;10.144;2024-02-15T05:58:34;102487.72;;;5.52;100.00
75886;BME280;64561;44.018;10.144;2024-02-15T06:01:03;102485.41;;;5.55;100.00
75886;BME280;64561;44.018;10.144;2024-02-15T06:03:34;102482.66;;;5.52;100.00
75886;BME280;64561;44.018;10.144;2024-02-15T06:06:05;102481.13;;;5.54;100.00
75886;BME280;64561;44.018;10.144;2024-02-15T06:08:36;102472.50;;;5.52;100.00
75886;BME280;64561;44.018;10.144;2024-02-15T06:11:04;102493.69;;;5.64;100.00
75886;BME280;64561;44.018;10.144;2024-02-15T06:13:32;102483.75;;;5.55;100.00
75886;BME280;64561;44.018;10.144;2024-02-15T06:16:00;102487.72;;;5.52;100.00
75886;BME280;64561;44.018;10.144;2024-02-15T06:18:28;102485.41;;;5.55;100.00
75886;BME280;64561;44.018;10.144;2024-02-15T06:20:57;102486.63;;;5.48;100.00
75886;BME280;64561;44.018;10.144;2024-02-15T06:23:26;102488.97;;;5.45;100.00
75886;BME280;64561;44.018;10.144;2024-02-15T06:25:56;102482.75;;;5.41;100.00
75886;BME280;64561;44.018;10.144;2024-02-15T06:28:25;102476.28;;;5.45;100.00
75886;BME280;64561;44.018;10.144;2024-02-15T06:31:11;102474.91;;;5.50;100.00
75886;BME280;64561;44.018;10.144;2024-02-15T06:33:58;102479.03;;;5.48;100.00
75886;BME280;64561;44.018;10.144;2024-02-15T06:36:48;102473.59;;;5.43;100.00
75886;BME280;64561;44.018;10.144;2024-02-15T06:39:34;102477.16;;;5.45;100.00
75886;BME280;64561;44.018;10.144;2024-02-15T06:42:15;102471.28;;;5.46;100.00
75886;BME280;64561;44.018;10.144;2024-02-15T06:44:44;102471.63;;;5.51;100.00
75886;BME280;64561;44.018;10.144;2024-02-15T06:47:12;102470.97;;;5.54;100.00
75886;BME280;64561;44.018;10.144;2024-02-15T06:49:40;102483.53;;;5.64;100.00
75886;BME280;64561;44.018;10.144;2024-02-15T06:52:07;102482.94;;;5.68;100.00
75886;BME280;64561;44.018;10.144;2024-02-15T06:54:35;102487.94;;;5.66;100.00
75886;BME280;64561;44.018;10.144;2024-02-15T06:57:03;102488.81;;;5.67;100.00
75886;BME280;64561;44.018;10.144;2024-02-15T06:59:32;102488.38;;;5.61;100.00
75886;BME280;64561;44.018;10.144;2024-02-15T07:02:00;102487.81;;;5.53;100.00
75886;BME280;64561;44.018;10.144;2024-02-15T07:04:27;102491.06;;;5.50;100.00
75886;BME280;64561;44.018;10.144;2024-02-15T07:06:55;102495.78;;;5.58;100.00
75886;BME280;64561;44.018;10.144;2024-02-15T07:09:23;102499.19;;;5.58;100.00
75886;BME280;64561;44.018;10.144;2024-02-15T07:11:51;102496.56;;;5.57;100.00
75886;BME280;64561;44.018;10.144;2024-02-15T07:14:19;102495.00;;;5.59;100.00
75886;BME280;64561;44.018;10.144;2024-02-15T07:16:47;102508.34;;;5.68;100.00
75886;BME280;64561;44.018;10.144;2024-02-15T07:19:16;102487.94;;;5.66;100.00
75886;BME280;64561;44.018;10.144;2024-02-15T07:21:45;102493.31;;;5.83;100.00
75886;BME280;64561;44.018;10.144;2024-02-15T07:24:13;102503.38;;;5.93;100.00
75886;BME280;64561;44.018;10.144;2024-02-15T07:26:41;102500.56;;;6.02;100.00
75886;BME280;64561;44.018;10.144;2024-02-15T07:29:08;102505.53;;;6.12;100.00
75886;BME280;64561;44.018;10.144;2024-02-15T07:31:36;102504.63;;;6.23;100.00
75886;BME280;64561;44.018;10.144;2024-02-15T07:34:04;102502.13;;;6.36;100.00
75886;BME280;64561;44.018;10.144;2024-02-15T07:36:34;102502.09;;;6.48;100.00
75886;BME280;64561;44.018;10.144;2024-02-15T07:39:02;102503.13;;;6.63;100.00
75886;BME280;64561;44.018;10.144;2024-02-15T07:41:30;102503.25;;;6.78;100.00
75886;BME280;64561;44.018;10.144;2024-02-15T07:44:00;102501.22;;;6.86;100.00
75886;BME280;64561;44.018;10.144;2024-02-15T07:46:28;102503.59;;;6.96;100.00
75886;BME280;64561;44.018;10.144;2024-02-15T07:48:56;102507.81;;;7.09;100.00
75886;BME280;64561;44.018;10.144;2024-02-15T07:51:24;102507.66;;;7.19;100.00
75886;BME280;64561;44.018;10.144;2024-02-15T07:53:52;102502.16;;;7.26;100.00
75886;BME280;64561;44.018;10.144;2024-02-15T07:56:19;102503.53;;;7.35;100.00
75886;BME280;64561;44.018;10.144;2024-02-15T07:58:48;102489.94;;;7.34;100.00
75886;BME280;64561;44.018;10.144;2024-02-15T08:01:19;102486.00;;;7.39;100.00
75886;BME280;64561;44.018;10.144;2024-02-15T08:04:18;102476.88;;;7.43;100.00
75886;BME280;64561;44.018;10.144;2024-02-15T08:06:48;102489.41;;;7.66;100.00
75886;BME280;64561;44.018;10.144;2024-02-15T08:09:16;102477.53;;;7.80;100.00
75886;BME280;64561;44.018;10.144;2024-02-15T08:11:44;102472.13;;;7.89;100.00
75886;BME280;64561;44.018;10.144;2024-02-15T08:14:12;102469.06;;;7.94;100.00
75886;BME280;64561;44.018;10.144;2024-02-15T08:16:40;102470.22;;;7.99;100.00
75886;BME280;64561;44.018;10.144;2024-02-15T08:19:09;102469.94;;;7.95;100.00
75886;BME280;64561;44.018;10.144;2024-02-15T08:21:38;102475.13;;;7.96;100.00
75886;BME280;64561;44.018;10.144;2024-02-15T08:24:11;102477.34;;;8.05;100.00
75886;BME280;64561;44.018;10.144;2024-02-15T08:26:39;102469.50;;;8.15;100.00
75886;BME280;64561;44.018;10.144;2024-02-15T08:29:07;102466.59;;;8.24;100.00
75886;BME280;64561;44.018;10.144;2024-02-15T08:31:35;102474.09;;;8.36;100.00
75886;BME280;64561;44.018;10.144;2024-02-15T08:34:02;102472.31;;;8.48;100.00
75886;BME280;64561;44.018;10.144;2024-02-15T08:36:33;102472.84;;;8.57;100.00
75886;BME280;64561;44.018;10.144;2024-02-15T08:39:00;102469.88;;;8.64;100.00
75886;BME280;64561;44.018;10.144;2024-02-15T08:41:28;102463.28;;;8.68;100.00
75886;BME280;64561;44.018;10.144;2024-02-15T08:43:55;102458.63;;;8.76;100.00
75886;BME280;64561;44.018;10.144;2024-02-15T08:46:28;102455.44;;;8.80;100.00
75886;BME280;64561;44.018;10.144;2024-02-15T08:48:55;102450.75;;;8.87;100.00
75886;BME280;64561;44.018;10.144;2024-02-15T08:51:22;102457.91;;;8.93;100.00
75886;BME280;64561;44.018;10.144;2024-02-15T08:53:51;102461.78;;;9.01;100.00
75886;BME280;64561;44.018;10.144;2024-02-15T08:56:18;102462.06;;;9.06;100.00
75886;BME280;64561;44.018;10.144;2024-02-15T08:58:46;102454.81;;;9.13;100.00
75886;BME280;64561;44.018;10.144;2024-02-15T09:01:20;102453.03;;;9.27;100.00
75886;BME280;64561;44.018;10.144;2024-02-15T09:03:47;102454.94;;;9.31;100.00
75886;BME280;64561;44.018;10.144;2024-02-15T09:06:15;102459.06;;;9.44;100.00
75886;BME280;64561;44.018;10.144;2024-02-15T09:08:42;102450.47;;;9.58;100.00
75886;BME280;64561;44.018;10.144;2024-02-15T09:11:09;102448.78;;;9.59;100.00
75886;BME280;64561;44.018;10.144;2024-02-15T09:13:39;102455.75;;;9.61;100.00
75886;BME280;64561;44.018;10.144;2024-02-15T09:16:07;102457.28;;;9.74;100.00
75886;BME280;64561;44.018;10.144;2024-02-15T09:18:34;102454.81;;;9.76;100.00
75886;BME280;64561;44.018;10.144;2024-02-15T09:21:01;102450.75;;;9.79;100.00
75886;BME280;64561;44.018;10.144;2024-02-15T09:23:29;102455.06;;;9.80;100.00
75886;BME280;64561;44.018;10.144;2024-02-15T09:25:58;102454.50;;;9.86;100.00
75886;BME280;64561;44.018;10.144;2024-02-15T09:28:26;102457.88;;;10.01;100.00
75886;BME280;64561;44.018;10.144;2024-02-15T09:30:53;102458.34;;;10.11;100.00
75886;BME280;64561;44.018;10.144;2024-02-15T09:33:26;102460.59;;;10.21;100.00
75886;BME280;64561;44.018;10.144;2024-02-15T09:35:54;102462.50;;;10.25;100.00
75886;BME280;64561;44.018;10.144;2024-02-15T09:38:22;102452.63;;;10.31;100.00
75886;BME280;64561;44.018;10.144;2024-02-15T09:40:49;102453.66;;;10.35;100.00
75886;BME280;64561;44.018;10.144;2024-02-15T09:43:16;102456.06;;;10.32;100.00
75886;BME280;64561;44.018;10.144;2024-02-15T09:45:44;102452.63;;;10.31;100.00
75886;BME280;64561;44.018;10.144;2024-02-15T09:48:11;102446.06;;;10.36;100.00
75886;BME280;64561;44.018;10.144;2024-02-15T09:50:41;102443.25;;;10.48;100.00
75886;BME280;64561;44.018;10.144;2024-02-15T09:53:11;102442.84;;;10.57;100.00
75886;BME280;64561;44.018;10.144;2024-02-15T09:55:40;102438.97;;;10.65;100.00
75886;BME280;64561;44.018;10.144;2024-02-15T09:58:11;102435.91;;;10.72;100.00
75886;BME280;64561;44.018;10.144;2024-02-15T10:00:40;102441.28;;;10.94;100.00
75886;BME280;64561;44.018;10.144;2024-02-15T10:03:07;102445.22;;;11.06;100.00
75886;BME280;64561;44.018;10.144;2024-02-15T10:05:36;102443.13;;;11.15;100.00
75886;BME280;64561;44.018;10.144;2024-02-15T10:08:06;102440.50;;;11.31;100.00
75886;BME280;64561;44.018;10.144;2024-02-15T10:10:34;102446.25;;;11.45;100.00
75886;BME280;64561;44.018;10.144;2024-02-15T10:13:02;102443.16;;;11.52;100.00
75886;BME280;64561;44.018;10.144;2024-02-15T10:15:33;102453.09;;;11.64;100.00
75886;BME280;64561;44.018;10.144;2024-02-15T10:18:10;102437.94;;;11.68;100.00
75886;BME280;64561;44.018;10.144;2024-02-15T10:20:40;102429.13;;;11.63;100.00
75886;BME280;64561;44.018;10.144;2024-02-15T10:23:13;102431.97;;;11.70;99.99
75886;BME280;64561;44.018;10.144;2024-02-15T10:25:45;102435.56;;;11.73;99.59
75886;BME280;64561;44.018;10.144;2024-02-15T10:28:14;102428.63;;;11.71;98.95
75886;BME280;64561;44.018;10.144;2024-02-15T10:30:46;102429.34;;;11.86;100.00
75886;BME280;64561;44.018;10.144;2024-02-15T10:33:19;102415.16;;;11.94;99.83
75886;BME280;64561;44.018;10.144;2024-02-15T10:36:07;102424.06;;;12.02;98.84
75886;BME280;64561;44.018;10.144;2024-02-15T10:38:35;102422.78;;;12.12;97.52
75886;BME280;64561;44.018;10.144;2024-02-15T10:41:04;102414.47;;;12.18;96.45
75886;BME280;64561;44.018;10.144;2024-02-15T10:43:36;102419.94;;;12.06;96.55
75886;BME280;64561;44.018;10.144;2024-02-15T10:46:09;102427.78;;;12.09;98.07
75886;BME280;64561;44.018;10.144;2024-02-15T10:48:37;102422.50;;;12.25;98.02
75886;BME280;64561;44.018;10.144;2024-02-15T10:51:10;102423.19;;;12.42;95.88
75886;BME280;64561;44.018;10.144;2024-02-15T10:53:47;102420.47;;;12.58;94.07
75886;BME280;64561;44.018;10.144;2024-02-15T10:56:26;102410.56;;;12.47;89.00
75886;BME280;64561;44.018;10.144;2024-02-15T10:59:17;102405.88;;;12.37;92.05
75886;BME280;64561;44.018;10.144;2024-02-15T11:01:46;102409.31;;;12.37;92.39
75886;BME280;64561;44.018;10.144;2024-02-15T11:04:20;102398.22;;;12.38;93.85
75886;BME280;64561;44.018;10.144;2024-02-15T11:06:55;102393.97;;;12.39;93.50
75886;BME280;64561;44.018;10.144;2024-02-15T11:09:23;102392.28;;;12.39;94.67
75886;BME280;64561;44.018;10.144;2024-02-15T11:11:50;102377.44;;;12.53;94.80
75886;BME280;64561;44.018;10.144;2024-02-15T11:14:27;102374.63;;;12.68;94.16
75886;BME280;64561;44.018;10.144;2024-02-15T11:16:59;102371.84;;;12.84;91.71
75886;BME280;64561;44.018;10.144;2024-02-15T11:22:23;102359.66;;;13.01;89.89
75886;BME280;64561;44.018;10.144;2024-02-15T11:24:52;102356.25;;;13.02;89.32
75886;BME280;64561;44.018;10.144;2024-02-15T11:27:27;102346.81;;;13.23;87.31
75886;BME280;64561;44.018;10.144;2024-02-15T11:35:13;102334.22;;;13.30;86.17
75886;BME280;64561;44.018;10.144;2024-02-15T11:40:27;102332.22;;;13.45;85.65
75886;BME280;64561;44.018;10.144;2024-02-15T11:43:00;102318.44;;;13.43;86.55
75886;BME280;64561;44.018;10.144;2024-02-15T11:45:29;102317.81;;;13.50;86.07
75886;BME280;64561;44.018;10.144;2024-02-15T11:48:11;102323.91;;;13.52;87.33
75886;BME280;64561;44.018;10.144;2024-02-15T11:50:40;102320.56;;;13.55;88.27
75886;BME280;64561;44.018;10.144;2024-02-15T11:53:08;102324.63;;;13.48;88.55
75886;BME280;64561;44.018;10.144;2024-02-15T11:55:39;102329.03;;;13.52;88.43
75886;BME280;64561;44.018;10.144;2024-02-15T11:58:08;102327.00;;;13.43;86.62
75886;BME280;64561;44.018;10.144;2024-02-15T12:00:37;102325.16;;;13.39;88.66
75886;BME280;64561;44.018;10.144;2024-02-15T12:03:24;102326.88;;;13.39;87.71
75886;BME280;64561;44.018;10.144;2024-02-15T12:06:27;102329.06;;;13.30;87.12
75886;BME280;64561;44.018;10.144;2024-02-15T12:09:17;102326.25;;;13.23;87.42
75886;BME280;64561;44.018;10.144;2024-02-15T12:12:04;102312.94;;;13.11;86.67
75886;BME280;64561;44.018;10.144;2024-02-15T12:14:59;102323.50;;;13.19;88.06
75886;BME280;64561;44.018;10.144;2024-02-15T12:17:46;102323.28;;;13.13;86.63
75886;BME280;64561;44.018;10.144;2024-02-15T12:20:32;102321.47;;;13.10;86.79
75886;BME280;64561;44.018;10.144;2024-02-15T12:23:01;102317.09;;;13.08;88.69
75886;BME280;64561;44.018;10.144;2024-02-15T12:25:29;102307.75;;;13.10;89.07
75886;BME280;64561;44.018;10.144;2024-02-15T12:28:00;102308.00;;;13.17;88.94
75886;BME280;64561;44.018;10.144;2024-02-15T12:30:34;102300.97;;;13.12;86.09
75886;BME280;64561;44.018;10.144;2024-02-15T12:34:02;102295.44;;;13.01;86.20
75886;BME280;64561;44.018;10.144;2024-02-15T12:36:36;102300.69;;;13.04;85.10
75886;BME280;64561;44.018;10.144;2024-02-15T12:39:06;102299.91;;;13.07;84.25
75886;BME280;64561;44.018;10.144;2024-02-15T12:41:48;102291.72;;;13.17;85.96
75886;BME280;64561;44.018;10.144;2024-02-15T12:44:19;102283.59;;;13.27;85.43
75886;BME280;64561;44.018;10.144;2024-02-15T12:46:47;102286.38;;;13.33;85.88
75886;BME280;64561;44.018;10.144;2024-02-15T12:51:50;102282.66;;;13.49;84.40
75886;BME280;64561;44.018;10.144;2024-02-15T12:54:22;102272.56;;;13.55;84.09
75886;BME280;64561;44.018;10.144;2024-02-15T12:56:49;102266.59;;;13.56;85.53
75886;BME280;64561;44.018;10.144;2024-02-15T12:59:19;102259.63;;;13.52;85.43
75886;BME280;64561;44.018;10.144;2024-02-15T13:01:48;102264.31;;;13.64;85.21
75886;BME280;64561;44.018;10.144;2024-02-15T13:04:25;102253.19;;;13.65;82.89
75886;BME280;64561;44.018;10.144;2024-02-15T13:06:52;102252.50;;;13.69;80.60
75886;BME280;64561;44.018;10.144;2024-02-15T13:09:20;102255.66;;;13.62;83.85